createdAt,value
2023-04-08T00:01:49.632Z,99.90
2023-04-08T00:04:17.351Z,99.90
2023-04-08T00:06:44.908Z,99.90
2023-04-08T00:09:12.416Z,99.90
2023-04-08T00:11:40.731Z,99.90
2023-04-08T00:14:08.340Z,99.90
2023-04-08T00:16:36.014Z,99.90
2023-04-08T00:19:03.575Z,99.90
2023-04-08T00:21:31.505Z,99.90
2023-04-08T00:23:59.144Z,99.90
2023-04-08T00:26:27.243Z,99.90
2023-04-08T00:28:54.778Z,99.90
2023-04-08T00:31:22.373Z,99.90
2023-04-08T00:33:51.305Z,99.90
2023-04-08T00:36:19.149Z,99.90
2023-04-08T00:38:46.898Z,99.90
2023-04-08T00:41:14.594Z,99.90
2023-04-08T00:43:42.174Z,99.90
2023-04-08T00:46:10.700Z,99.90
2023-04-08T00:48:38.316Z,99.90
2023-04-08T00:51:05.986Z,99.90
2023-04-08T00:53:33.562Z,99.90
2023-04-08T00:56:01.340Z,99.90
2023-04-08T00:58:30.141Z,99.90
2023-04-08T01:01:11.093Z,99.90
2023-04-08T01:04:09.859Z,99.90
2023-04-08T01:06:49.785Z,99.90
2023-04-08T01:09:23.598Z,99.90
2023-04-08T01:11:53.713Z,99.90
2023-04-08T01:14:26.568Z,99.90
2023-04-08T01:16:57.512Z,99.90
2023-04-08T01:19:35.770Z,99.90
2023-04-08T01:22:44.661Z,99.90
2023-04-08T01:25:21.201Z,99.90
2023-04-08T01:27:50.912Z,99.90
2023-04-08T01:30:20.700Z,99.90
2023-04-08T01:32:48.631Z,99.90
2023-04-08T01:35:16.730Z,99.90
2023-04-08T01:37:46.718Z,99.90
2023-04-08T01:40:15.520Z,99.90
2023-04-08T01:42:44.862Z,99.90
2023-04-08T01:45:14.515Z,99.90
2023-04-08T01:47:44.922Z,99.90
2023-04-08T01:50:13.711Z,99.90
2023-04-08T01:52:43.263Z,99.90
2023-04-08T01:55:13.360Z,99.90
2023-04-08T01:57:44.280Z,99.90
2023-04-08T02:00:14.431Z,99.90
2023-04-08T02:02:49.098Z,99.90
2023-04-08T02:05:17.105Z,99.90
2023-04-08T02:07:46.674Z,99.90
2023-04-08T02:10:14.241Z,99.90
2023-04-08T02:12:43.382Z,99.90
2023-04-08T02:15:12.654Z,99.90
2023-04-08T02:17:51.624Z,99.90
2023-04-08T02:20:33.195Z,99.90
2023-04-08T02:23:18.058Z,99.90
2023-04-08T02:25:47.294Z,99.90
2023-04-08T02:28:17.775Z,99.90
2023-04-08T02:30:56.516Z,99.90
2023-04-08T02:33:24.800Z,99.90
2023-04-08T02:35:55.865Z,99.90
2023-04-08T02:38:24.498Z,99.90
2023-04-08T02:40:52.230Z,99.90
2023-04-08T02:43:19.746Z,99.90
2023-04-08T02:45:47.510Z,99.90
2023-04-08T02:48:16.118Z,99.90
2023-04-08T02:50:43.643Z,99.90
2023-04-08T02:53:11.200Z,99.90
2023-04-08T02:55:40.000Z,99.90
2023-04-08T02:58:07.668Z,99.90
2023-04-08T03:00:35.253Z,99.90
2023-04-08T03:03:02.970Z,99.90
2023-04-08T03:05:30.865Z,99.90
2023-04-08T03:07:58.528Z,99.90
2023-04-08T03:10:26.323Z,99.90
2023-04-08T03:12:53.871Z,99.90
2023-04-08T03:15:21.453Z,99.90
2023-04-08T03:17:49.029Z,99.90
2023-04-08T03:20:16.568Z,99.90
2023-04-08T03:22:44.284Z,99.90
2023-04-08T03:25:11.858Z,99.90
2023-04-08T03:27:39.402Z,99.90
2023-04-08T03:30:07.942Z,99.90
2023-04-08T03:32:35.840Z,99.90
2023-04-08T03:35:04.309Z,99.90
2023-04-08T03:37:32.266Z,99.90
2023-04-08T03:40:00.031Z,99.90
2023-04-08T03:42:27.646Z,99.90
2023-04-08T03:44:55.233Z,99.90
2023-04-08T03:47:22.820Z,99.90
2023-04-08T03:49:52.477Z,99.90
2023-04-08T03:52:20.299Z,99.90
2023-04-08T03:54:47.787Z,99.90
2023-04-08T03:57:15.960Z,99.90
2023-04-08T03:59:43.458Z,99.90
2023-04-08T04:02:11.017Z,99.90
2023-04-08T04:04:38.699Z,99.90
2023-04-08T04:07:06.241Z,99.90
2023-04-08T04:09:33.785Z,99.90
2023-04-08T04:12:01.610Z,99.90
2023-04-08T04:14:29.085Z,99.90
2023-04-08T04:16:56.612Z,99.90
2023-04-08T04:19:24.646Z,99.90
2023-04-08T04:21:52.373Z,99.90
2023-04-08T04:24:19.883Z,99.90
2023-04-08T04:26:47.761Z,99.90
2023-04-08T04:29:15.334Z,99.90
2023-04-08T04:31:42.868Z,99.90
2023-04-08T04:34:10.358Z,99.90
2023-04-08T04:36:37.866Z,99.90
2023-04-08T04:39:05.535Z,99.90
2023-04-08T04:41:35.160Z,99.90
2023-04-08T04:44:02.643Z,99.90
2023-04-08T04:46:30.535Z,99.90
2023-04-08T04:48:58.143Z,99.90
2023-04-08T04:51:27.057Z,99.90
2023-04-08T04:53:54.548Z,99.90
2023-04-08T04:56:22.050Z,99.90
2023-04-08T04:58:49.678Z,99.90
2023-04-08T05:01:17.378Z,99.90
2023-04-08T05:03:45.443Z,99.90
2023-04-08T05:06:12.960Z,99.90
2023-04-08T05:08:40.454Z,99.90
2023-04-08T05:11:11.461Z,99.90
2023-04-08T05:13:39.143Z,99.90
2023-04-08T05:16:07.111Z,99.90
2023-04-08T05:18:34.655Z,99.90
2023-04-08T05:21:02.873Z,99.90
2023-04-08T05:23:30.441Z,99.90
2023-04-08T05:25:57.973Z,99.90
2023-04-08T05:28:25.473Z,99.90
2023-04-08T05:30:54.440Z,99.90
2023-04-08T05:33:22.017Z,99.90
2023-04-08T05:35:49.595Z,99.90
2023-04-08T05:38:17.240Z,99.90
2023-04-08T05:40:44.800Z,99.90
2023-04-08T05:43:12.271Z,99.90
2023-04-08T05:45:40.235Z,99.90
2023-04-08T05:48:07.813Z,99.90
2023-04-08T05:50:36.230Z,99.90
2023-04-08T05:53:03.810Z,99.90
2023-04-08T05:55:31.299Z,99.90
2023-04-08T05:57:58.842Z,99.90
2023-04-08T06:00:26.854Z,99.90
2023-04-08T06:02:54.556Z,99.90
2023-04-08T06:05:22.293Z,99.90
2023-04-08T06:07:49.832Z,99.90
2023-04-08T06:10:17.753Z,99.90
2023-04-08T06:12:45.341Z,99.90
2023-04-08T06:15:12.946Z,99.90
2023-04-08T06:17:40.554Z,99.90
2023-04-08T06:20:11.391Z,99.90
2023-04-08T06:22:38.998Z,99.90
2023-04-08T06:25:07.207Z,99.90
2023-04-08T06:27:34.790Z,99.90
2023-04-08T06:30:02.294Z,99.90
2023-04-08T06:32:29.880Z,99.90
2023-04-08T06:34:57.472Z,99.90
2023-04-08T06:37:24.972Z,99.90
2023-04-08T06:39:52.445Z,99.90
2023-04-08T06:42:20.476Z,99.90
2023-04-08T06:45:07.735Z,99.90
2023-04-08T06:47:35.264Z,99.90
2023-04-08T06:50:03.009Z,99.90
2023-04-08T06:52:30.598Z,99.90
2023-04-08T06:54:58.078Z,99.90
2023-04-08T06:57:25.722Z,99.90
2023-04-08T06:59:53.526Z,99.90
2023-04-08T07:02:22.124Z,99.90
2023-04-08T07:04:49.951Z,99.90
2023-04-08T07:07:17.510Z,99.90
2023-04-08T07:09:46.440Z,99.90
2023-04-08T07:12:14.022Z,99.90
2023-04-08T07:14:41.529Z,99.90
2023-04-08T07:17:09.284Z,99.90
2023-04-08T07:19:37.451Z,99.90
2023-04-08T07:22:04.956Z,99.90
2023-04-08T07:24:32.734Z,99.90
2023-04-08T07:27:00.208Z,99.90
2023-04-08T07:29:27.993Z,99.90
2023-04-08T07:31:55.511Z,99.90
2023-04-08T07:34:23.052Z,99.90
2023-04-08T07:36:50.615Z,99.90
2023-04-08T07:39:18.169Z,99.90
2023-04-08T07:41:45.653Z,99.90
2023-04-08T07:44:17.032Z,99.90
2023-04-08T07:46:46.307Z,99.90
2023-04-08T07:49:13.908Z,99.90
2023-04-08T07:51:41.404Z,99.90
2023-04-08T07:54:11.933Z,99.90
2023-04-08T07:56:43.166Z,99.90
2023-04-08T07:59:14.056Z,99.90
2023-04-08T08:01:41.625Z,99.90
2023-04-08T08:04:09.248Z,99.90
2023-04-08T08:06:36.973Z,99.90
2023-04-08T08:09:05.044Z,99.90
2023-04-08T08:11:33.003Z,99.90
2023-04-08T08:14:00.498Z,99.90
2023-04-08T08:16:32.349Z,99.90
2023-04-08T08:19:00.382Z,99.90
2023-04-08T08:21:27.901Z,99.90
2023-04-08T08:23:56.757Z,99.90
2023-04-08T08:26:24.828Z,99.90
2023-04-08T08:28:52.451Z,99.90
2023-04-08T08:31:20.095Z,99.90
2023-04-08T08:33:47.585Z,99.90
2023-04-08T08:36:15.347Z,99.90
2023-04-08T08:38:42.855Z,99.90
2023-04-08T08:41:10.342Z,99.90
2023-04-08T08:43:38.618Z,99.90
2023-04-08T08:46:11.605Z,99.90
2023-04-08T08:48:40.627Z,99.90
2023-04-08T08:51:12.556Z,99.90
2023-04-08T08:53:45.054Z,99.90
2023-04-08T08:56:18.503Z,99.90
2023-04-08T08:58:47.543Z,99.90
2023-04-08T09:01:40.290Z,99.90
2023-04-08T09:04:15.809Z,99.90
2023-04-08T09:06:45.216Z,99.90
2023-04-08T09:09:13.163Z,99.90
2023-04-08T09:11:47.152Z,99.90
2023-04-08T09:14:22.630Z,99.90
2023-04-08T09:16:51.729Z,99.90
2023-04-08T09:19:20.235Z,99.90
2023-04-08T09:22:07.388Z,99.90
2023-04-08T09:24:36.893Z,99.90
2023-04-08T09:27:05.754Z,99.90
2023-04-08T09:29:36.412Z,99.90
2023-04-08T09:32:06.224Z,93.20
2023-04-08T09:34:34.368Z,94.30
2023-04-08T09:37:02.256Z,92.30
2023-04-08T09:39:30.745Z,92.50
2023-04-08T09:42:01.263Z,90.60
2023-04-08T09:44:31.415Z,86.40
2023-04-08T09:47:12.828Z,85.10
2023-04-08T09:50:05.432Z,82.60
2023-04-08T09:52:40.111Z,78.70
2023-04-08T09:55:12.391Z,75.20
2023-04-08T09:58:23.463Z,77.00
2023-04-08T10:00:53.965Z,76.70
2023-04-08T10:03:40.385Z,78.10
2023-04-08T10:06:10.284Z,75.80
2023-04-08T10:08:38.419Z,76.00
2023-04-08T10:11:06.326Z,76.70
2023-04-08T10:13:34.459Z,75.70
2023-04-08T10:16:22.044Z,74.40
2023-04-08T10:18:52.817Z,74.20
2023-04-08T10:21:37.043Z,74.60
2023-04-08T10:24:11.800Z,72.60
2023-04-08T10:26:45.196Z,73.80
2023-04-08T10:29:18.620Z,73.50
2023-04-08T10:31:52.653Z,72.70
2023-04-08T10:34:26.792Z,72.40
2023-04-08T10:36:58.812Z,73.30
2023-04-08T10:39:27.167Z,70.80
2023-04-08T10:41:54.858Z,69.30
2023-04-08T10:44:26.605Z,67.90
2023-04-08T10:46:55.642Z,64.10
2023-04-08T10:49:31.939Z,63.50
2023-04-08T10:51:59.455Z,61.40
2023-04-08T10:54:27.211Z,62.90
2023-04-08T10:56:54.832Z,58.20
2023-04-08T10:59:32.838Z,59.30
2023-04-08T11:02:01.435Z,58.60
2023-04-08T11:04:29.377Z,58.40
2023-04-08T11:06:58.165Z,57.70
2023-04-08T11:09:25.638Z,58.70
2023-04-08T11:11:53.816Z,59.20
2023-04-08T11:14:22.424Z,59.20
2023-04-08T11:16:50.212Z,58.70
2023-04-08T11:19:18.583Z,59.00
2023-04-08T11:21:46.689Z,59.30
2023-04-08T11:24:16.300Z,59.90
2023-04-08T11:26:43.928Z,59.10
2023-04-08T11:29:14.129Z,59.90
2023-04-08T11:31:43.871Z,58.90
2023-04-08T11:34:12.056Z,58.90
2023-04-08T11:36:41.501Z,56.40
2023-04-08T11:39:12.485Z,54.80
2023-04-08T11:41:40.500Z,55.00
2023-04-08T11:44:08.788Z,55.60
2023-04-08T11:46:36.903Z,57.20
2023-04-08T11:49:06.853Z,57.80
2023-04-08T11:51:53.444Z,58.20
2023-04-08T11:54:29.023Z,57.70
2023-04-08T11:56:58.252Z,57.50
2023-04-08T11:59:28.387Z,58.30
2023-04-08T12:01:57.208Z,57.60
2023-04-08T12:04:24.934Z,58.30
2023-04-08T12:06:53.318Z,58.70
2023-04-08T12:09:20.826Z,58.80
2023-04-08T12:11:48.566Z,58.80
2023-04-08T12:14:16.312Z,58.80
2023-04-08T12:16:43.798Z,58.90
2023-04-08T12:19:11.379Z,59.30
2023-04-08T12:21:39.322Z,59.00
2023-04-08T12:24:07.147Z,59.30
2023-04-08T12:26:35.706Z,58.90
2023-04-08T12:29:03.312Z,59.50
2023-04-08T12:31:30.921Z,58.70
2023-04-08T12:33:58.435Z,58.70
2023-04-08T12:36:27.240Z,59.30
2023-04-08T12:38:54.828Z,58.70
2023-04-08T12:41:22.337Z,59.30
2023-04-08T12:43:49.829Z,59.80
2023-04-08T12:46:17.610Z,60.00
2023-04-08T12:48:47.476Z,59.70
2023-04-08T12:51:15.213Z,59.50
2023-04-08T12:53:42.930Z,59.10
2023-04-08T12:56:10.602Z,58.90
2023-04-08T12:58:38.071Z,59.10
2023-04-08T13:01:06.172Z,58.50
2023-04-08T13:03:35.004Z,58.30
2023-04-08T13:06:02.703Z,58.40
2023-04-08T13:08:30.236Z,58.50
2023-04-08T13:10:57.721Z,58.30
2023-04-08T13:13:25.220Z,58.90
2023-04-08T13:15:52.862Z,58.60
2023-04-08T13:18:20.631Z,59.00
2023-04-08T13:20:48.152Z,59.10
2023-04-08T13:23:17.831Z,58.50
2023-04-08T13:25:48.297Z,59.10
2023-04-08T13:28:15.842Z,58.70
2023-04-08T13:30:43.325Z,58.40
2023-04-08T13:33:11.097Z,57.60
2023-04-08T13:35:38.610Z,58.20
2023-04-08T13:38:06.105Z,58.30
2023-04-08T13:40:33.595Z,58.20
2023-04-08T13:43:01.611Z,58.20
2023-04-08T13:45:29.228Z,58.40
2023-04-08T13:47:56.900Z,57.40
2023-04-08T13:50:24.595Z,57.90
2023-04-08T13:52:52.100Z,58.10
2023-04-08T13:55:19.590Z,57.40
2023-04-08T13:57:47.128Z,57.10
2023-04-08T14:00:15.259Z,57.80
2023-04-08T14:02:42.973Z,57.40
2023-04-08T14:05:10.695Z,57.30
2023-04-08T14:07:38.213Z,58.00
2023-04-08T14:10:06.600Z,58.00
2023-04-08T14:12:34.120Z,57.80
2023-04-08T14:15:02.782Z,58.20
2023-04-08T14:17:30.366Z,57.60
2023-04-08T14:19:59.439Z,57.40
2023-04-08T14:22:26.972Z,56.70
2023-04-08T14:24:54.473Z,56.10
2023-04-08T14:27:21.982Z,56.40
2023-04-08T14:29:49.466Z,56.10
2023-04-08T14:32:16.982Z,55.20
2023-04-08T14:34:44.714Z,54.60
2023-04-08T14:37:12.722Z,56.10
2023-04-08T14:39:40.317Z,56.20
2023-04-08T14:42:07.864Z,55.60
2023-04-08T14:45:13.118Z,55.40
2023-04-08T14:47:40.752Z,54.20
2023-04-08T14:50:08.860Z,55.80
2023-04-08T14:52:36.335Z,55.90
2023-04-08T14:55:04.395Z,55.40
2023-04-08T14:57:31.956Z,56.30
2023-04-08T14:59:59.492Z,56.10
2023-04-08T15:02:27.808Z,55.80
2023-04-08T15:04:55.327Z,56.10
2023-04-08T15:07:23.619Z,55.50
2023-04-08T15:09:51.122Z,56.00
2023-04-08T15:12:18.648Z,56.20
2023-04-08T15:14:46.115Z,56.10
2023-04-08T15:17:13.597Z,55.70
2023-04-08T15:19:41.106Z,55.90
2023-04-08T15:22:08.658Z,56.10
2023-04-08T15:24:36.240Z,56.40
2023-04-08T15:27:03.808Z,56.20
2023-04-08T15:29:31.303Z,55.40
2023-04-08T15:31:58.868Z,55.60
2023-04-08T15:34:27.043Z,55.20
2023-04-08T15:36:57.092Z,55.40
2023-04-08T15:39:25.299Z,55.40
2023-04-08T15:41:53.105Z,55.50
2023-04-08T15:44:20.584Z,55.10
2023-04-08T15:46:48.135Z,55.10
2023-04-08T15:49:15.619Z,55.10
2023-04-08T15:51:44.506Z,54.80
2023-04-08T15:54:12.242Z,54.70
2023-04-08T15:56:39.801Z,55.20
2023-04-08T15:59:07.294Z,55.20
2023-04-08T16:01:34.863Z,55.50
2023-04-08T16:04:02.497Z,55.40
2023-04-08T16:06:30.229Z,55.60
2023-04-08T16:08:57.751Z,55.90
2023-04-08T16:11:26.035Z,56.20
2023-04-08T16:13:53.687Z,56.40
2023-04-08T16:16:21.285Z,55.70
2023-04-08T16:18:48.850Z,55.70
2023-04-08T16:21:17.197Z,56.20
2023-04-08T16:23:44.752Z,56.10
2023-04-08T16:26:12.744Z,56.30
2023-04-08T16:28:40.278Z,56.40
2023-04-08T16:31:07.858Z,56.80
2023-04-08T16:33:35.460Z,57.00
2023-04-08T16:36:04.272Z,57.30
2023-04-08T16:38:32.972Z,57.20
2023-04-08T16:41:00.993Z,57.40
2023-04-08T16:43:28.477Z,57.90
2023-04-08T16:45:55.994Z,58.00
2023-04-08T16:48:23.513Z,58.10
2023-04-08T16:50:51.022Z,58.50
2023-04-08T16:53:18.629Z,58.70
2023-04-08T16:55:46.144Z,58.90
2023-04-08T16:58:13.671Z,59.20
2023-04-08T17:00:41.176Z,59.30
2023-04-08T17:03:09.065Z,59.40
2023-04-08T17:05:37.064Z,59.90
2023-04-08T17:08:04.999Z,60.10
2023-04-08T17:10:32.530Z,60.00
2023-04-08T17:13:00.047Z,60.00
2023-04-08T17:15:27.582Z,60.30
2023-04-08T17:17:55.137Z,61.30
2023-04-08T17:20:23.089Z,60.90
2023-04-08T17:22:50.991Z,61.10
2023-04-08T17:25:18.545Z,61.20
2023-04-08T17:27:46.110Z,61.10
2023-04-08T17:30:13.812Z,61.40
2023-04-08T17:32:41.330Z,61.70
2023-04-08T17:35:09.085Z,62.00
2023-04-08T17:37:36.697Z,62.40
2023-04-08T17:40:04.631Z,62.20
2023-04-08T17:42:32.160Z,62.40
2023-04-08T17:45:01.566Z,62.30
2023-04-08T17:47:29.210Z,62.10
2023-04-08T17:49:56.760Z,62.00
2023-04-08T17:52:24.256Z,62.30
2023-04-08T17:54:51.742Z,62.80
2023-04-08T17:57:19.260Z,62.80
2023-04-08T17:59:47.154Z,63.30
2023-04-08T18:02:14.703Z,63.30
2023-04-08T18:04:42.802Z,63.30
2023-04-08T18:07:10.634Z,62.80
2023-04-08T18:09:38.150Z,63.00
2023-04-08T18:12:06.275Z,63.20
2023-04-08T18:14:33.758Z,63.50
2023-04-08T18:17:02.222Z,63.70
2023-04-08T18:19:29.925Z,64.20
2023-04-08T18:21:57.407Z,64.10
2023-04-08T18:24:24.892Z,64.30
2023-04-08T18:27:01.371Z,64.30
2023-04-08T18:29:31.725Z,64.70
2023-04-08T18:31:59.208Z,64.60
2023-04-08T18:34:26.951Z,64.60
2023-04-08T18:36:54.504Z,64.80
2023-04-08T18:39:22.539Z,65.10
2023-04-08T18:41:50.197Z,65.50
2023-04-08T18:44:17.668Z,65.70
2023-04-08T18:46:45.790Z,65.90
2023-04-08T18:49:13.258Z,66.20
2023-04-08T18:51:44.001Z,66.70
2023-04-08T18:54:17.841Z,66.80
2023-04-08T18:56:45.458Z,67.00
2023-04-08T18:59:13.936Z,67.20
2023-04-08T19:01:42.110Z,67.30
2023-04-08T19:04:13.125Z,67.20
2023-04-08T19:06:41.885Z,67.30
2023-04-08T19:09:09.397Z,67.20
2023-04-08T19:11:36.889Z,67.40
2023-04-08T19:14:04.385Z,67.50
2023-04-08T19:16:31.948Z,67.40
2023-04-08T19:18:59.568Z,67.60
2023-04-08T19:21:31.646Z,67.70
2023-04-08T19:23:59.102Z,68.00
2023-04-08T19:26:26.599Z,68.00
2023-04-08T19:28:54.070Z,68.00
2023-04-08T19:31:21.916Z,67.90
2023-04-08T19:33:49.693Z,67.90
2023-04-08T19:36:17.341Z,68.20
2023-04-08T19:38:44.864Z,68.00
2023-04-08T19:41:12.385Z,68.00
2023-04-08T19:43:39.852Z,67.80
2023-04-08T19:46:07.627Z,67.60
2023-04-08T19:48:35.201Z,67.00
2023-04-08T19:51:03.455Z,66.80
2023-04-08T19:53:30.953Z,66.80
2023-04-08T19:56:01.255Z,67.10
2023-04-08T19:58:29.080Z,67.30
2023-04-08T20:00:56.650Z,67.30
2023-04-08T20:03:24.308Z,67.40
2023-04-08T20:05:52.388Z,67.30
2023-04-08T20:08:20.007Z,67.30
2023-04-08T20:10:49.385Z,67.60
2023-04-08T20:13:17.422Z,67.40
2023-04-08T20:15:45.338Z,67.60
2023-04-08T20:18:14.512Z,67.70
2023-04-08T20:20:42.858Z,67.70
2023-04-08T20:23:10.570Z,67.80
2023-04-08T20:25:38.508Z,67.70
2023-04-08T20:28:06.128Z,67.90
2023-04-08T20:30:33.652Z,67.70
2023-04-08T20:33:01.286Z,67.70
2023-04-08T20:35:28.783Z,67.70
2023-04-08T20:37:56.718Z,67.90
2023-04-08T20:40:24.362Z,68.00
2023-04-08T20:42:51.975Z,68.00
2023-04-08T20:45:19.509Z,68.10
2023-04-08T20:47:47.009Z,68.00
2023-04-08T20:50:15.049Z,68.30
2023-04-08T20:52:42.672Z,68.20
2023-04-08T20:55:10.308Z,68.30
2023-04-08T20:57:37.888Z,68.20
2023-04-08T21:00:06.310Z,68.10
2023-04-08T21:02:34.513Z,68.00
2023-04-08T21:05:02.185Z,68.00
2023-04-08T21:07:30.294Z,68.00
2023-04-08T21:09:57.946Z,67.80
2023-04-08T21:12:25.487Z,67.90
2023-04-08T21:14:52.989Z,67.70
2023-04-08T21:17:20.494Z,67.50
2023-04-08T21:19:48.039Z,67.50
2023-04-08T21:22:16.405Z,67.10
2023-04-08T21:24:43.890Z,67.20
2023-04-08T21:27:11.841Z,67.00
2023-04-08T21:29:39.338Z,67.00
2023-04-08T21:32:07.292Z,67.20
2023-04-08T21:34:34.817Z,67.20
2023-04-08T21:37:02.284Z,67.10
2023-04-08T21:39:29.738Z,67.10
2023-04-08T21:41:57.387Z,67.20
2023-04-08T21:44:24.871Z,67.30
2023-04-08T21:46:52.633Z,67.10
2023-04-08T21:49:20.634Z,67.10
2023-04-08T21:51:48.116Z,67.30
2023-04-08T21:54:15.744Z,67.40
2023-04-08T21:56:43.618Z,67.20
2023-04-08T21:59:11.141Z,67.30
2023-04-08T22:01:38.821Z,67.40
2023-04-08T22:04:06.476Z,67.60
2023-04-08T22:06:34.054Z,67.50
2023-04-08T22:09:01.664Z,67.70
2023-04-08T22:11:29.165Z,67.90
2023-04-08T22:13:56.654Z,68.10
2023-04-08T22:16:24.389Z,68.80
2023-04-08T22:18:52.126Z,68.80
2023-04-08T22:21:19.721Z,69.00
2023-04-08T22:23:47.195Z,69.30
2023-04-08T22:26:15.844Z,69.40
2023-04-08T22:28:43.706Z,69.50
2023-04-08T22:31:12.491Z,69.50
2023-04-08T22:33:40.352Z,69.90
2023-04-08T22:36:07.969Z,70.10
2023-04-08T22:38:36.136Z,70.30
2023-04-08T22:41:03.804Z,70.60
2023-04-08T22:43:31.307Z,70.70
2023-04-08T22:45:58.832Z,70.70
2023-04-08T22:48:26.353Z,70.90
2023-04-08T22:50:53.889Z,70.90
2023-04-08T22:53:21.758Z,71.20
2023-04-08T22:55:49.269Z,71.30
2023-04-08T22:58:16.760Z,71.50
2023-04-08T23:00:44.312Z,71.40
2023-04-08T23:03:11.864Z,71.40
2023-04-08T23:05:39.492Z,71.60
2023-04-08T23:08:07.053Z,71.50
2023-04-08T23:10:34.592Z,71.80
2023-04-08T23:13:02.082Z,72.10
2023-04-08T23:15:29.670Z,72.30
2023-04-08T23:17:57.314Z,72.70
2023-04-08T23:20:25.033Z,72.70
2023-04-08T23:22:52.547Z,73.10
2023-04-08T23:25:20.294Z,73.30
2023-04-08T23:27:47.775Z,73.50
2023-04-08T23:30:15.479Z,73.90
2023-04-08T23:32:42.988Z,74.30
2023-04-08T23:35:10.618Z,74.40
2023-04-08T23:37:38.141Z,74.70
2023-04-08T23:40:06.886Z,74.90
2023-04-08T23:42:34.358Z,75.00
2023-04-08T23:45:01.845Z,74.70
2023-04-08T23:47:31.126Z,75.00
2023-04-08T23:49:58.785Z,75.10
2023-04-08T23:52:26.282Z,75.40
2023-04-08T23:54:53.747Z,75.80
2023-04-08T23:57:21.845Z,75.90
2023-04-08T23:59:49.382Z,76.10
